sensor_id;sensor_type;location;lat;lon;timestamp;P1;durP1;ratioP1;P2;durP2;ratioP2
7919;SDS011;18778;47.610;9.776;2023-03-31T00:01:26;5.33;;;4.63;;
7919;SDS011;18778;47.610;9.776;2023-03-31T00:03:53;8.60;;;5.00;;
7919;SDS011;18778;47.610;9.776;2023-03-31T00:06:28;6.67;;;5.10;;
7919;SDS011;18778;47.610;9.776;2023-03-31T00:08:54;5.30;;;4.67;;
7919;SDS011;18778;47.610;9.776;2023-03-31T00:11:25;6.43;;;5.00;;
7919;SDS011;18778;47.610;9.776;2023-03-31T00:13:51;7.63;;;5.13;;
7919;SDS011;18778;47.610;9.776;2023-03-31T00:16:17;5.93;;;4.80;;
7919;SDS011;18778;47.610;9.776;2023-03-31T00:18:43;6.50;;;5.00;;
7919;SDS011;18778;47.610;9.776;2023-03-31T00:21:16;6.00;;;4.90;;
7919;SDS011;18778;47.610;9.776;2023-03-31T00:23:58;6.43;;;4.70;;
7919;SDS011;18778;47.610;9.776;2023-03-31T00:26:26;6.30;;;4.83;;
7919;SDS011;18778;47.610;9.776;2023-03-31T00:28:52;6.27;;;4.70;;
7919;SDS011;18778;47.610;9.776;2023-03-31T00:31:18;6.20;;;4.80;;
7919;SDS011;18778;47.610;9.776;2023-03-31T00:33:44;7.20;;;5.00;;
7919;SDS011;18778;47.610;9.776;2023-03-31T00:36:10;5.17;;;4.70;;
7919;SDS011;18778;47.610;9.776;2023-03-31T00:38:36;9.27;;;5.50;;
7919;SDS011;18778;47.610;9.776;2023-03-31T00:41:02;8.03;;;5.17;;
7919;SDS011;18778;47.610;9.776;2023-03-31T00:46:02;6.80;;;4.90;;
7919;SDS011;18778;47.610;9.776;2023-03-31T00:48:47;6.20;;;4.40;;
7919;SDS011;18778;47.610;9.776;2023-03-31T00:51:16;7.97;;;4.67;;
7919;SDS011;18778;47.610;9.776;2023-03-31T00:53:45;6.90;;;4.90;;
7919;SDS011;18778;47.610;9.776;2023-03-31T00:56:19;5.80;;;4.90;;
7919;SDS011;18778;47.610;9.776;2023-03-31T00:58:46;4.90;;;4.50;;
7919;SDS011;18778;47.610;9.776;2023-03-31T01:01:15;4.77;;;4.37;;
7919;SDS011;18778;47.610;9.776;2023-03-31T01:03:43;6.30;;;4.27;;
7919;SDS011;18778;47.610;9.776;2023-03-31T01:06:11;6.80;;;4.23;;
7919;SDS011;18778;47.610;9.776;2023-03-31T01:08:39;5.33;;;4.00;;
7919;SDS011;18778;47.610;9.776;2023-03-31T01:11:06;5.30;;;4.17;;
7919;SDS011;18778;47.610;9.776;2023-03-31T01:13:36;4.47;;;3.80;;
7919;SDS011;18778;47.610;9.776;2023-03-31T01:16:03;4.07;;;3.67;;
7919;SDS011;18778;47.610;9.776;2023-03-31T01:18:29;5.67;;;3.40;;
7919;SDS011;18778;47.610;9.776;2023-03-31T01:26:35;3.87;;;3.57;;
7919;SDS011;18778;47.610;9.776;2023-03-31T01:32:23;4.00;;;3.70;;
7919;SDS011;18778;47.610;9.776;2023-03-31T01:43:58;5.60;;;4.43;;
7919;SDS011;18778;47.610;9.776;2023-03-31T01:46:37;5.67;;;5.10;;
7919;SDS011;18778;47.610;9.776;2023-03-31T01:51:41;8.20;;;6.60;;
7919;SDS011;18778;47.610;9.776;2023-03-31T01:56:51;8.13;;;6.40;;
7919;SDS011;18778;47.610;9.776;2023-03-31T01:59:25;9.10;;;6.00;;
7919;SDS011;18778;47.610;9.776;2023-03-31T02:02:02;6.97;;;5.90;;
7919;SDS011;18778;47.610;9.776;2023-03-31T02:04:36;10.77;;;6.40;;
7919;SDS011;18778;47.610;9.776;2023-03-31T02:07:17;7.93;;;6.37;;
7919;SDS011;18778;47.610;9.776;2023-03-31T02:09:48;9.17;;;6.77;;
7919;SDS011;18778;47.610;9.776;2023-03-31T02:12:20;9.40;;;7.07;;
7919;SDS011;18778;47.610;9.776;2023-03-31T02:14:50;9.27;;;6.00;;
7919;SDS011;18778;47.610;9.776;2023-03-31T02:17:19;8.13;;;6.27;;
7919;SDS011;18778;47.610;9.776;2023-03-31T02:19:54;7.67;;;6.27;;
7919;SDS011;18778;47.610;9.776;2023-03-31T02:22:23;8.17;;;6.30;;
7919;SDS011;18778;47.610;9.776;2023-03-31T02:24:51;8.07;;;6.30;;
7919;SDS011;18778;47.610;9.776;2023-03-31T02:27:25;6.53;;;5.50;;
7919;SDS011;18778;47.610;9.776;2023-03-31T02:29:55;6.83;;;6.13;;
7919;SDS011;18778;47.610;9.776;2023-03-31T02:32:28;7.20;;;5.97;;
7919;SDS011;18778;47.610;9.776;2023-03-31T02:34:56;8.27;;;6.20;;
7919;SDS011;18778;47.610;9.776;2023-03-31T02:37:23;10.50;;;5.83;;
7919;SDS011;18778;47.610;9.776;2023-03-31T02:39:51;8.70;;;6.23;;
7919;SDS011;18778;47.610;9.776;2023-03-31T02:42:19;8.20;;;5.63;;
7919;SDS011;18778;47.610;9.776;2023-03-31T02:44:46;6.00;;;5.40;;
7919;SDS011;18778;47.610;9.776;2023-03-31T02:47:12;10.83;;;5.50;;
7919;SDS011;18778;47.610;9.776;2023-03-31T02:49:40;9.50;;;5.77;;
7919;SDS011;18778;47.610;9.776;2023-03-31T02:55:18;5.70;;;4.97;;
7919;SDS011;18778;47.610;9.776;2023-03-31T03:06:31;6.00;;;5.33;;
7919;SDS011;18778;47.610;9.776;2023-03-31T03:14:38;6.30;;;5.40;;
7919;SDS011;18778;47.610;9.776;2023-03-31T03:17:25;6.17;;;5.57;;
7919;SDS011;18778;47.610;9.776;2023-03-31T03:19:59;5.47;;;4.97;;
7919;SDS011;18778;47.610;9.776;2023-03-31T03:22:26;7.90;;;5.37;;
7919;SDS011;18778;47.610;9.776;2023-03-31T03:24:52;6.93;;;4.67;;
7919;SDS011;18778;47.610;9.776;2023-03-31T03:27:18;5.53;;;4.70;;
7919;SDS011;18778;47.610;9.776;2023-03-31T03:29:46;5.90;;;4.47;;
7919;SDS011;18778;47.610;9.776;2023-03-31T03:32:12;8.93;;;5.30;;
7919;SDS011;18778;47.610;9.776;2023-03-31T03:34:38;9.73;;;5.17;;
7919;SDS011;18778;47.610;9.776;2023-03-31T03:37:04;5.27;;;4.73;;
7919;SDS011;18778;47.610;9.776;2023-03-31T03:39:29;6.77;;;4.83;;
7919;SDS011;18778;47.610;9.776;2023-03-31T03:41:55;6.27;;;5.40;;
7919;SDS011;18778;47.610;9.776;2023-03-31T03:44:21;5.87;;;5.27;;
7919;SDS011;18778;47.610;9.776;2023-03-31T03:46:47;6.37;;;5.37;;
7919;SDS011;18778;47.610;9.776;2023-03-31T03:49:12;8.03;;;5.47;;
7919;SDS011;18778;47.610;9.776;2023-03-31T03:51:38;7.47;;;5.40;;
7919;SDS011;18778;47.610;9.776;2023-03-31T03:54:04;7.20;;;4.67;;
7919;SDS011;18778;47.610;9.776;2023-03-31T03:56:29;5.97;;;4.77;;
7919;SDS011;18778;47.610;9.776;2023-03-31T03:58:55;6.97;;;4.60;;
7919;SDS011;18778;47.610;9.776;2023-03-31T04:01:21;6.37;;;4.57;;
7919;SDS011;18778;47.610;9.776;2023-03-31T04:03:47;8.03;;;5.23;;
7919;SDS011;18778;47.610;9.776;2023-03-31T04:06:13;6.37;;;4.63;;
7919;SDS011;18778;47.610;9.776;2023-03-31T04:08:39;6.93;;;5.50;;
7919;SDS011;18778;47.610;9.776;2023-03-31T04:11:12;19.00;;;12.00;;
7919;SDS011;18778;47.610;9.776;2023-03-31T04:13:41;4.53;;;4.13;;
7919;SDS011;18778;47.610;9.776;2023-03-31T04:16:06;6.23;;;4.10;;
7919;SDS011;18778;47.610;9.776;2023-03-31T04:18:32;14.67;;;10.57;;
7919;SDS011;18778;47.610;9.776;2023-03-31T04:21:01;13.87;;;10.67;;
7919;SDS011;18778;47.610;9.776;2023-03-31T04:23:30;7.70;;;5.17;;
7919;SDS011;18778;47.610;9.776;2023-03-31T04:25:57;7.63;;;6.17;;
7919;SDS011;18778;47.610;9.776;2023-03-31T04:28:23;6.13;;;4.93;;
7919;SDS011;18778;47.610;9.776;2023-03-31T04:30:50;7.87;;;5.03;;
7919;SDS011;18778;47.610;9.776;2023-03-31T04:33:18;9.03;;;8.10;;
7919;SDS011;18778;47.610;9.776;2023-03-31T04:35:45;7.23;;;6.13;;
7919;SDS011;18778;47.610;9.776;2023-03-31T04:38:23;6.67;;;5.97;;
7919;SDS011;18778;47.610;9.776;2023-03-31T04:40:51;6.23;;;5.07;;
7919;SDS011;18778;47.610;9.776;2023-03-31T04:43:18;8.67;;;6.57;;
7919;SDS011;18778;47.610;9.776;2023-03-31T04:45:45;7.03;;;6.00;;
7919;SDS011;18778;47.610;9.776;2023-03-31T04:48:10;6.87;;;5.43;;
7919;SDS011;18778;47.610;9.776;2023-03-31T04:50:37;7.37;;;5.57;;
7919;SDS011;18778;47.610;9.776;2023-03-31T04:53:03;7.83;;;6.30;;
7919;SDS011;18778;47.610;9.776;2023-03-31T04:55:28;9.03;;;5.80;;
7919;SDS011;18778;47.610;9.776;2023-03-31T04:57:54;7.37;;;6.10;;
7919;SDS011;18778;47.610;9.776;2023-03-31T05:00:21;6.67;;;6.03;;
7919;SDS011;18778;47.610;9.776;2023-03-31T05:02:46;8.17;;;5.80;;
7919;SDS011;18778;47.610;9.776;2023-03-31T05:05:12;7.30;;;5.70;;
7919;SDS011;18778;47.610;9.776;2023-03-31T05:07:38;7.73;;;5.80;;
7919;SDS011;18778;47.610;9.776;2023-03-31T05:10:04;7.83;;;5.80;;
7919;SDS011;18778;47.610;9.776;2023-03-31T05:12:33;6.00;;;5.50;;
7919;SDS011;18778;47.610;9.776;2023-03-31T05:15:00;7.40;;;5.87;;
7919;SDS011;18778;47.610;9.776;2023-03-31T05:17:26;11.43;;;5.57;;
7919;SDS011;18778;47.610;9.776;2023-03-31T05:19:52;8.73;;;5.87;;
7919;SDS011;18778;47.610;9.776;2023-03-31T05:22:17;8.90;;;5.90;;
7919;SDS011;18778;47.610;9.776;2023-03-31T05:24:44;8.00;;;6.07;;
7919;SDS011;18778;47.610;9.776;2023-03-31T05:27:10;8.00;;;6.40;;
7919;SDS011;18778;47.610;9.776;2023-03-31T05:29:37;7.90;;;5.93;;
7919;SDS011;18778;47.610;9.776;2023-03-31T05:32:02;7.23;;;5.60;;
7919;SDS011;18778;47.610;9.776;2023-03-31T05:34:28;9.63;;;5.73;;
7919;SDS011;18778;47.610;9.776;2023-03-31T05:36:54;8.70;;;5.60;;
7919;SDS011;18778;47.610;9.776;2023-03-31T05:39:20;8.80;;;5.67;;
7919;SDS011;18778;47.610;9.776;2023-03-31T05:41:46;12.53;;;5.70;;
7919;SDS011;18778;47.610;9.776;2023-03-31T05:44:12;6.37;;;5.00;;
7919;SDS011;18778;47.610;9.776;2023-03-31T05:46:38;7.80;;;5.77;;
7919;SDS011;18778;47.610;9.776;2023-03-31T05:49:03;9.70;;;5.37;;
7919;SDS011;18778;47.610;9.776;2023-03-31T05:51:30;5.93;;;4.90;;
7919;SDS011;18778;47.610;9.776;2023-03-31T05:53:55;6.60;;;4.77;;
7919;SDS011;18778;47.610;9.776;2023-03-31T05:56:21;9.83;;;4.80;;
7919;SDS011;18778;47.610;9.776;2023-03-31T05:58:46;6.87;;;4.50;;
7919;SDS011;18778;47.610;9.776;2023-03-31T06:01:13;5.70;;;4.10;;
7919;SDS011;18778;47.610;9.776;2023-03-31T06:03:43;5.47;;;4.33;;
7919;SDS011;18778;47.610;9.776;2023-03-31T06:06:10;7.50;;;5.07;;
7919;SDS011;18778;47.610;9.776;2023-03-31T06:08:40;9.43;;;5.27;;
7919;SDS011;18778;47.610;9.776;2023-03-31T06:11:09;5.13;;;4.43;;
7919;SDS011;18778;47.610;9.776;2023-03-31T06:13:37;4.83;;;4.33;;
7919;SDS011;18778;47.610;9.776;2023-03-31T06:16:03;4.57;;;4.07;;
7919;SDS011;18778;47.610;9.776;2023-03-31T06:18:30;7.67;;;4.60;;
7919;SDS011;18778;47.610;9.776;2023-03-31T06:20:57;8.23;;;4.37;;
7919;SDS011;18778;47.610;9.776;2023-03-31T06:23:23;7.93;;;4.60;;
7919;SDS011;18778;47.610;9.776;2023-03-31T06:25:49;5.23;;;4.73;;
7919;SDS011;18778;47.610;9.776;2023-03-31T06:28:15;5.17;;;4.30;;
7919;SDS011;18778;47.610;9.776;2023-03-31T06:30:41;7.33;;;3.97;;
7919;SDS011;18778;47.610;9.776;2023-03-31T06:33:07;6.00;;;4.37;;
7919;SDS011;18778;47.610;9.776;2023-03-31T06:35:32;7.00;;;4.50;;
7919;SDS011;18778;47.610;9.776;2023-03-31T06:38:02;6.70;;;4.30;;
7919;SDS011;18778;47.610;9.776;2023-03-31T06:40:28;4.90;;;4.30;;
7919;SDS011;18778;47.610;9.776;2023-03-31T06:42:53;8.90;;;3.87;;
7919;SDS011;18778;47.610;9.776;2023-03-31T06:45:19;4.87;;;4.20;;
7919;SDS011;18778;47.610;9.776;2023-03-31T06:47:45;5.70;;;4.10;;
7919;SDS011;18778;47.610;9.776;2023-03-31T06:50:11;7.30;;;3.90;;
7919;SDS011;18778;47.610;9.776;2023-03-31T06:52:36;4.17;;;3.70;;
7919;SDS011;18778;47.610;9.776;2023-03-31T06:55:02;3.77;;;3.47;;
7919;SDS011;18778;47.610;9.776;2023-03-31T06:57:28;5.10;;;4.00;;
7919;SDS011;18778;47.610;9.776;2023-03-31T06:59:57;9.03;;;5.37;;
7919;SDS011;18778;47.610;9.776;2023-03-31T07:02:22;4.00;;;3.63;;
7919;SDS011;18778;47.610;9.776;2023-03-31T07:04:48;3.40;;;3.13;;
7919;SDS011;18778;47.610;9.776;2023-03-31T07:07:13;5.03;;;3.70;;
7919;SDS011;18778;47.610;9.776;2023-03-31T07:09:39;3.63;;;3.33;;
7919;SDS011;18778;47.610;9.776;2023-03-31T07:12:05;3.57;;;2.90;;
7919;SDS011;18778;47.610;9.776;2023-03-31T07:14:30;6.00;;;2.90;;
7919;SDS011;18778;47.610;9.776;2023-03-31T07:16:57;4.83;;;3.30;;
7919;SDS011;18778;47.610;9.776;2023-03-31T07:19:22;3.87;;;3.20;;
7919;SDS011;18778;47.610;9.776;2023-03-31T07:21:48;3.57;;;3.27;;
7919;SDS011;18778;47.610;9.776;2023-03-31T07:24:14;4.40;;;3.67;;
7919;SDS011;18778;47.610;9.776;2023-03-31T07:26:40;5.50;;;3.00;;
7919;SDS011;18778;47.610;9.776;2023-03-31T07:29:05;3.57;;;3.27;;
7919;SDS011;18778;47.610;9.776;2023-03-31T07:31:31;3.93;;;3.40;;
7919;SDS011;18778;47.610;9.776;2023-03-31T07:33:57;3.90;;;3.23;;
7919;SDS011;18778;47.610;9.776;2023-03-31T07:36:23;4.73;;;2.97;;
7919;SDS011;18778;47.610;9.776;2023-03-31T07:38:48;6.83;;;4.83;;
7919;SDS011;18778;47.610;9.776;2023-03-31T07:41:15;5.07;;;4.53;;
7919;SDS011;18778;47.610;9.776;2023-03-31T07:43:43;6.77;;;3.90;;
7919;SDS011;18778;47.610;9.776;2023-03-31T07:46:12;8.27;;;4.73;;
7919;SDS011;18778;47.610;9.776;2023-03-31T07:48:40;5.27;;;4.17;;
7919;SDS011;18778;47.610;9.776;2023-03-31T07:51:05;5.17;;;4.30;;
7919;SDS011;18778;47.610;9.776;2023-03-31T07:53:31;7.33;;;4.00;;
7919;SDS011;18778;47.610;9.776;2023-03-31T07:55:56;5.57;;;4.00;;
7919;SDS011;18778;47.610;9.776;2023-03-31T07:58:22;6.70;;;4.60;;
7919;SDS011;18778;47.610;9.776;2023-03-31T08:00:47;6.53;;;5.37;;
7919;SDS011;18778;47.610;9.776;2023-03-31T08:03:13;11.37;;;5.17;;
7919;SDS011;18778;47.610;9.776;2023-03-31T08:05:38;9.10;;;6.50;;
7919;SDS011;18778;47.610;9.776;2023-03-31T08:08:04;6.43;;;5.73;;
7919;SDS011;18778;47.610;9.776;2023-03-31T08:10:29;7.03;;;5.90;;
7919;SDS011;18778;47.610;9.776;2023-03-31T08:12:55;8.60;;;6.60;;
7919;SDS011;18778;47.610;9.776;2023-03-31T08:15:21;6.63;;;5.90;;
7919;SDS011;18778;47.610;9.776;2023-03-31T08:17:47;7.90;;;5.60;;
7919;SDS011;18778;47.610;9.776;2023-03-31T08:20:12;7.77;;;5.87;;
7919;SDS011;18778;47.610;9.776;2023-03-31T08:22:38;11.17;;;6.93;;
7919;SDS011;18778;47.610;9.776;2023-03-31T08:25:04;8.77;;;5.90;;
7919;SDS011;18778;47.610;9.776;2023-03-31T08:27:32;7.63;;;5.30;;
7919;SDS011;18778;47.610;9.776;2023-03-31T08:30:03;8.40;;;5.17;;
7919;SDS011;18778;47.610;9.776;2023-03-31T08:32:34;7.03;;;5.17;;
7919;SDS011;18778;47.610;9.776;2023-03-31T08:35:00;11.80;;;6.43;;
7919;SDS011;18778;47.610;9.776;2023-03-31T08:37:26;10.47;;;6.30;;
7919;SDS011;18778;47.610;9.776;2023-03-31T08:39:52;11.93;;;6.83;;
7919;SDS011;18778;47.610;9.776;2023-03-31T08:42:20;7.30;;;5.83;;
7919;SDS011;18778;47.610;9.776;2023-03-31T08:47:33;8.53;;;5.30;;
7919;SDS011;18778;47.610;9.776;2023-03-31T08:50:04;7.80;;;5.50;;
7919;SDS011;18778;47.610;9.776;2023-03-31T08:52:44;7.60;;;4.33;;
7919;SDS011;18778;47.610;9.776;2023-03-31T08:55:19;5.10;;;3.77;;
7919;SDS011;18778;47.610;9.776;2023-03-31T08:57:51;6.43;;;4.40;;
7919;SDS011;18778;47.610;9.776;2023-03-31T09:00:25;8.47;;;4.20;;
7919;SDS011;18778;47.610;9.776;2023-03-31T09:03:03;5.13;;;4.27;;
7919;SDS011;18778;47.610;9.776;2023-03-31T09:08:13;13.40;;;7.73;;
7919;SDS011;18778;47.610;9.776;2023-03-31T09:11:12;14.70;;;8.57;;
7919;SDS011;18778;47.610;9.776;2023-03-31T09:19:34;7.73;;;5.70;;
7919;SDS011;18778;47.610;9.776;2023-03-31T09:22:02;7.20;;;4.93;;
7919;SDS011;18778;47.610;9.776;2023-03-31T09:24:44;6.53;;;4.73;;
7919;SDS011;18778;47.610;9.776;2023-03-31T09:27:18;8.53;;;5.23;;
7919;SDS011;18778;47.610;9.776;2023-03-31T09:32:19;7.40;;;4.80;;
7919;SDS011;18778;47.610;9.776;2023-03-31T09:34:51;5.60;;;4.17;;
7919;SDS011;18778;47.610;9.776;2023-03-31T09:37:26;6.87;;;6.10;;
7919;SDS011;18778;47.610;9.776;2023-03-31T09:39:55;6.57;;;4.37;;
7919;SDS011;18778;47.610;9.776;2023-03-31T09:42:25;5.77;;;4.53;;
7919;SDS011;18778;47.610;9.776;2023-03-31T09:44:50;7.20;;;6.37;;
7919;SDS011;18778;47.610;9.776;2023-03-31T09:47:32;7.63;;;4.73;;
7919;SDS011;18778;47.610;9.776;2023-03-31T09:50:07;9.77;;;5.63;;
7919;SDS011;18778;47.610;9.776;2023-03-31T09:52:36;6.73;;;4.80;;
7919;SDS011;18778;47.610;9.776;2023-03-31T09:57:45;10.30;;;5.53;;
7919;SDS011;18778;47.610;9.776;2023-03-31T10:03:00;8.33;;;4.60;;
7919;SDS011;18778;47.610;9.776;2023-03-31T10:05:37;5.33;;;4.63;;
7919;SDS011;18778;47.610;9.776;2023-03-31T10:11:29;5.87;;;4.67;;
7919;SDS011;18778;47.610;9.776;2023-03-31T10:13:34;7.50;;;4.40;;
7919;SDS011;18778;47.610;9.776;2023-03-31T10:16:11;4.10;;;3.67;;
7919;SDS011;18778;47.610;9.776;2023-03-31T10:18:47;5.70;;;3.60;;
7919;SDS011;18778;47.610;9.776;2023-03-31T10:21:23;4.13;;;3.20;;
7919;SDS011;18778;47.610;9.776;2023-03-31T10:23:51;4.23;;;3.30;;
7919;SDS011;18778;47.610;9.776;2023-03-31T10:26:19;4.80;;;3.70;;
7919;SDS011;18778;47.610;9.776;2023-03-31T10:28:48;7.23;;;4.07;;
7919;SDS011;18778;47.610;9.776;2023-03-31T10:31:16;5.97;;;4.30;;
7919;SDS011;18778;47.610;9.776;2023-03-31T10:33:58;5.03;;;4.23;;
7919;SDS011;18778;47.610;9.776;2023-03-31T10:36:28;6.83;;;4.20;;
7919;SDS011;18778;47.610;9.776;2023-03-31T10:38:55;7.40;;;4.33;;
7919;SDS011;18778;47.610;9.776;2023-03-31T10:41:25;8.30;;;4.83;;
7919;SDS011;18778;47.610;9.776;2023-03-31T10:43:53;5.73;;;3.87;;
7919;SDS011;18778;47.610;9.776;2023-03-31T10:46:20;5.30;;;4.80;;
7919;SDS011;18778;47.610;9.776;2023-03-31T10:49:26;8.40;;;5.20;;
7919;SDS011;18778;47.610;9.776;2023-03-31T10:51:52;5.83;;;4.07;;
7919;SDS011;18778;47.610;9.776;2023-03-31T10:54:20;4.90;;;4.27;;
7919;SDS011;18778;47.610;9.776;2023-03-31T10:56:46;7.07;;;4.53;;
7919;SDS011;18778;47.610;9.776;2023-03-31T11:20:49;6.90;;;3.00;;
7919;SDS011;18778;47.610;9.776;2023-03-31T11:29:25;3.63;;;2.40;;
7919;SDS011;18778;47.610;9.776;2023-03-31T11:35:17;4.93;;;4.30;;
7919;SDS011;18778;47.610;9.776;2023-03-31T11:45:38;5.20;;;2.60;;
7919;SDS011;18778;47.610;9.776;2023-03-31T11:48:14;9.07;;;2.80;;
7919;SDS011;18778;47.610;9.776;2023-03-31T11:50:46;4.53;;;2.10;;
7919;SDS011;18778;47.610;9.776;2023-03-31T11:53:16;2.87;;;1.90;;
7919;SDS011;18778;47.610;9.776;2023-03-31T11:55:45;3.93;;;2.07;;
7919;SDS011;18778;47.610;9.776;2023-03-31T11:58:19;3.23;;;2.13;;
7919;SDS011;18778;47.610;9.776;2023-03-31T12:01:35;3.93;;;2.13;;
7919;SDS011;18778;47.610;9.776;2023-03-31T12:06:20;3.70;;;2.30;;
7919;SDS011;18778;47.610;9.776;2023-03-31T12:09:00;2.80;;;2.20;;
7919;SDS011;18778;47.610;9.776;2023-03-31T12:11:47;4.13;;;3.07;;
7919;SDS011;18778;47.610;9.776;2023-03-31T12:14:32;2.67;;;2.33;;
7919;SDS011;18778;47.610;9.776;2023-03-31T12:17:08;6.17;;;2.40;;
7919;SDS011;18778;47.610;9.776;2023-03-31T12:22:33;5.97;;;2.47;;
7919;SDS011;18778;47.610;9.776;2023-03-31T12:25:10;4.10;;;2.57;;
7919;SDS011;18778;47.610;9.776;2023-03-31T12:27:41;2.50;;;2.30;;
7919;SDS011;18778;47.610;9.776;2023-03-31T12:30:12;6.93;;;2.60;;
7919;SDS011;18778;47.610;9.776;2023-03-31T12:33:02;5.33;;;2.60;;
7919;SDS011;18778;47.610;9.776;2023-03-31T12:36:02;5.13;;;2.80;;
7919;SDS011;18778;47.610;9.776;2023-03-31T12:39:27;6.57;;;2.87;;
7919;SDS011;18778;47.610;9.776;2023-03-31T12:44:33;4.40;;;3.33;;
7919;SDS011;18778;47.610;9.776;2023-03-31T12:55:36;6.13;;;3.13;;
7919;SDS011;18778;47.610;9.776;2023-03-31T13:01:31;4.90;;;3.10;;
7919;SDS011;18778;47.610;9.776;2023-03-31T13:03:41;6.50;;;2.70;;
7919;SDS011;18778;47.610;9.776;2023-03-31T13:11:20;3.43;;;2.97;;
7919;SDS011;18778;47.610;9.776;2023-03-31T13:16:47;5.93;;;2.70;;
7919;SDS011;18778;47.610;9.776;2023-03-31T13:19:25;4.53;;;2.70;;
7919;SDS011;18778;47.610;9.776;2023-03-31T13:22:00;4.97;;;2.60;;
7919;SDS011;18778;47.610;9.776;2023-03-31T13:24:28;6.57;;;2.80;;
7919;SDS011;18778;47.610;9.776;2023-03-31T13:26:55;4.07;;;2.17;;
7919;SDS011;18778;47.610;9.776;2023-03-31T13:32:06;2.77;;;2.00;;
7919;SDS011;18778;47.610;9.776;2023-03-31T13:34:43;3.67;;;1.90;;
7919;SDS011;18778;47.610;9.776;2023-03-31T13:45:45;1.57;;;1.47;;
7919;SDS011;18778;47.610;9.776;2023-03-31T13:50:48;2.10;;;1.50;;
7919;SDS011;18778;47.610;9.776;2023-03-31T13:59:15;3.00;;;1.87;;
7919;SDS011;18778;47.610;9.776;2023-03-31T14:02:03;2.30;;;1.80;;
7919;SDS011;18778;47.610;9.776;2023-03-31T14:05:11;3.13;;;1.60;;
7919;SDS011;18778;47.610;9.776;2023-03-31T14:08:04;1.97;;;1.43;;
7919;SDS011;18778;47.610;9.776;2023-03-31T14:10:38;3.07;;;1.80;;
7919;SDS011;18778;47.610;9.776;2023-03-31T14:13:16;4.73;;;3.20;;
7919;SDS011;18778;47.610;9.776;2023-03-31T14:15:45;3.93;;;2.87;;
7919;SDS011;18778;47.610;9.776;2023-03-31T14:18:20;3.07;;;2.33;;
7919;SDS011;18778;47.610;9.776;2023-03-31T14:21:04;3.43;;;2.43;;
7919;SDS011;18778;47.610;9.776;2023-03-31T14:23:40;2.47;;;2.10;;
7919;SDS011;18778;47.610;9.776;2023-03-31T14:26:38;2.40;;;2.20;;
7919;SDS011;18778;47.610;9.776;2023-03-31T14:29:31;3.77;;;2.97;;
7919;SDS011;18778;47.610;9.776;2023-03-31T14:37:18;3.53;;;1.70;;
7919;SDS011;18778;47.610;9.776;2023-03-31T14:39:48;2.33;;;2.13;;
7919;SDS011;18778;47.610;9.776;2023-03-31T14:42:18;2.07;;;1.90;;
7919;SDS011;18778;47.610;9.776;2023-03-31T14:44:45;1.90;;;1.80;;
7919;SDS011;18778;47.610;9.776;2023-03-31T14:49:44;3.57;;;2.40;;
7919;SDS011;18778;47.610;9.776;2023-03-31T14:52:15;4.30;;;2.73;;
7919;SDS011;18778;47.610;9.776;2023-03-31T14:54:43;5.60;;;4.10;;
7919;SDS011;18778;47.610;9.776;2023-03-31T14:57:18;3.33;;;2.50;;
7919;SDS011;18778;47.610;9.776;2023-03-31T14:59:49;1.90;;;1.80;;
7919;SDS011;18778;47.610;9.776;2023-03-31T15:02:18;3.10;;;1.87;;
7919;SDS011;18778;47.610;9.776;2023-03-31T15:04:50;2.93;;;1.50;;
7919;SDS011;18778;47.610;9.776;2023-03-31T15:07:16;2.97;;;1.60;;
7919;SDS011;18778;47.610;9.776;2023-03-31T15:09:44;1.67;;;1.57;;
7919;SDS011;18778;47.610;9.776;2023-03-31T15:12:14;1.60;;;1.43;;
7919;SDS011;18778;47.610;9.776;2023-03-31T15:14:42;2.00;;;1.60;;
7919;SDS011;18778;47.610;9.776;2023-03-31T15:17:17;1.43;;;1.10;;
7919;SDS011;18778;47.610;9.776;2023-03-31T15:19:55;1.10;;;1.10;;
7919;SDS011;18778;47.610;9.776;2023-03-31T15:22:23;1.50;;;1.10;;
7919;SDS011;18778;47.610;9.776;2023-03-31T15:24:51;2.03;;;1.17;;
7919;SDS011;18778;47.610;9.776;2023-03-31T15:27:24;1.13;;;1.10;;
7919;SDS011;18778;47.610;9.776;2023-03-31T15:29:59;1.00;;;1.00;;
7919;SDS011;18778;47.610;9.776;2023-03-31T15:32:30;1.10;;;1.10;;
7919;SDS011;18778;47.610;9.776;2023-03-31T15:34:59;1.10;;;1.10;;
7919;SDS011;18778;47.610;9.776;2023-03-31T15:37:41;0.90;;;0.90;;
7919;SDS011;18778;47.610;9.776;2023-03-31T15:40:16;1.60;;;1.50;;
7919;SDS011;18778;47.610;9.776;2023-03-31T15:42:48;1.17;;;0.93;;
7919;SDS011;18778;47.610;9.776;2023-03-31T15:47:55;3.07;;;1.10;;
7919;SDS011;18778;47.610;9.776;2023-03-31T15:50:21;1.10;;;1.00;;
7919;SDS011;18778;47.610;9.776;2023-03-31T15:52:48;4.00;;;1.10;;
7919;SDS011;18778;47.610;9.776;2023-03-31T15:55:28;1.80;;;1.10;;
7919;SDS011;18778;47.610;9.776;2023-03-31T15:58:04;4.80;;;1.33;;
7919;SDS011;18778;47.610;9.776;2023-03-31T16:02:55;1.07;;;1.07;;
7919;SDS011;18778;47.610;9.776;2023-03-31T16:07:53;1.27;;;1.13;;
7919;SDS011;18778;47.610;9.776;2023-03-31T16:10:20;1.57;;;1.30;;
7919;SDS011;18778;47.610;9.776;2023-03-31T16:12:52;1.30;;;1.20;;
7919;SDS011;18778;47.610;9.776;2023-03-31T16:15:40;2.63;;;1.53;;
7919;SDS011;18778;47.610;9.776;2023-03-31T16:18:17;2.30;;;1.10;;
7919;SDS011;18778;47.610;9.776;2023-03-31T16:20:55;1.17;;;1.07;;
7919;SDS011;18778;47.610;9.776;2023-03-31T16:23:24;1.50;;;1.00;;
7919;SDS011;18778;47.610;9.776;2023-03-31T16:25:51;1.17;;;1.10;;
7919;SDS011;18778;47.610;9.776;2023-03-31T16:28:28;2.97;;;1.00;;
7919;SDS011;18778;47.610;9.776;2023-03-31T16:30:57;2.57;;;1.10;;
7919;SDS011;18778;47.610;9.776;2023-03-31T16:33:26;1.77;;;1.27;;
7919;SDS011;18778;47.610;9.776;2023-03-31T16:35:54;4.53;;;1.10;;
7919;SDS011;18778;47.610;9.776;2023-03-31T16:38:22;1.17;;;1.17;;
7919;SDS011;18778;47.610;9.776;2023-03-31T16:40:52;2.33;;;1.30;;
7919;SDS011;18778;47.610;9.776;2023-03-31T16:43:21;1.17;;;1.00;;
7919;SDS011;18778;47.610;9.776;2023-03-31T16:45:52;1.97;;;1.20;;
7919;SDS011;18778;47.610;9.776;2023-03-31T16:48:18;1.33;;;1.23;;
7919;SDS011;18778;47.610;9.776;2023-03-31T16:50:45;5.47;;;1.70;;
7919;SDS011;18778;47.610;9.776;2023-03-31T16:53:13;1.80;;;1.43;;
7919;SDS011;18778;47.610;9.776;2023-03-31T16:55:42;2.43;;;1.97;;
7919;SDS011;18778;47.610;9.776;2023-03-31T16:58:08;2.50;;;1.77;;
7919;SDS011;18778;47.610;9.776;2023-03-31T17:00:35;1.80;;;1.60;;
7919;SDS011;18778;47.610;9.776;2023-03-31T17:03:02;3.83;;;1.83;;
7919;SDS011;18778;47.610;9.776;2023-03-31T17:05:28;1.63;;;1.20;;
7919;SDS011;18778;47.610;9.776;2023-03-31T17:07:57;2.77;;;1.57;;
7919;SDS011;18778;47.610;9.776;2023-03-31T17:10:24;1.77;;;1.50;;
7919;SDS011;18778;47.610;9.776;2023-03-31T17:12:50;2.33;;;1.30;;
7919;SDS011;18778;47.610;9.776;2023-03-31T17:15:16;1.53;;;1.30;;
7919;SDS011;18778;47.610;9.776;2023-03-31T17:17:41;3.50;;;1.33;;
7919;SDS011;18778;47.610;9.776;2023-03-31T17:20:07;3.23;;;1.30;;
7919;SDS011;18778;47.610;9.776;2023-03-31T17:22:34;1.57;;;1.10;;
7919;SDS011;18778;47.610;9.776;2023-03-31T17:25:00;2.27;;;1.50;;
7919;SDS011;18778;47.610;9.776;2023-03-31T17:27:27;3.77;;;1.93;;
7919;SDS011;18778;47.610;9.776;2023-03-31T17:29:53;4.03;;;1.60;;
7919;SDS011;18778;47.610;9.776;2023-03-31T17:32:19;4.73;;;1.73;;
7919;SDS011;18778;47.610;9.776;2023-03-31T17:34:46;1.43;;;1.30;;
7919;SDS011;18778;47.610;9.776;2023-03-31T17:37:13;5.33;;;3.17;;
7919;SDS011;18778;47.610;9.776;2023-03-31T17:39:40;4.20;;;2.53;;
7919;SDS011;18778;47.610;9.776;2023-03-31T17:42:06;4.03;;;2.60;;
7919;SDS011;18778;47.610;9.776;2023-03-31T17:44:33;2.47;;;1.20;;
7919;SDS011;18778;47.610;9.776;2023-03-31T17:46:58;1.60;;;1.37;;
7919;SDS011;18778;47.610;9.776;2023-03-31T17:49:24;2.43;;;1.50;;
7919;SDS011;18778;47.610;9.776;2023-03-31T17:51:50;2.83;;;1.37;;
7919;SDS011;18778;47.610;9.776;2023-03-31T17:54:16;2.27;;;1.33;;
7919;SDS011;18778;47.610;9.776;2023-03-31T17:56:43;2.23;;;1.33;;
7919;SDS011;18778;47.610;9.776;2023-03-31T17:59:09;1.80;;;1.23;;
7919;SDS011;18778;47.610;9.776;2023-03-31T18:01:35;1.30;;;1.10;;
7919;SDS011;18778;47.610;9.776;2023-03-31T18:04:01;1.27;;;1.00;;